»·PEaware :: UAL1284 KSAN-KIAH

UAL1284 :: KSAN-KIAH

FLIGHT INFORMATION

Flight Status: Arrived
Operator:
United Airlines
More flights by this operator :: More flights under this callsign
Pilot: Henderson P. (1210)
Aircraft: AIRBUS A320
(A320)
More flights by this aircraft type
Origin: KSAN San Diego Intl-Lindbergh
United States
Destination: KIAH G Bush Intercontinental/Houst
United States
More flights between these airports :: More routes between these airports
Route: +ZZOOO2 IPL J18 HEEDS J18 BZA J2 HOGGZ J2 GBN J50 ELP J2 FST J138 SAT HTOWN2
File this flight plan on PilotEdge
Remarks:
Altitude:
(Current/Filed)
29,000ft
Speed:
(Current/Filed)
419kts
Departed: 13-Oct-18 09:43 AM
Arrived: 13-Oct-18 12:22 PM
Distance/Time
Traveled:
1130nm/2:39
Distance/Time
To Go:
Arrived

Flight Plot

Page will automatically refresh every two minutes.

Flight plan parsing failed; only flown route is shown


Map Options




Map Legend


Flown Route
Filed Route
Departure Airport
Arrival Airport
Navaid (VOR, NDB)
Fix

Horizontal Profiles

Position Reports

Time Latitude Longitude Heading Altitude Ground
Speed
13-Oct-18 09:27 32.734183 -117.203400 267 29ft 0kts
13-Oct-18 09:28 32.734183 -117.203400 267 29ft 0kts
13-Oct-18 09:29 32.734183 -117.203400 267 29ft 0kts
13-Oct-18 09:30 32.734183 -117.203400 267 29ft 0kts
13-Oct-18 09:31 32.734209 -117.202960 270 29ft 2kts
13-Oct-18 09:32 32.734004 -117.202731 15 29ft 0kts
13-Oct-18 09:33 32.734005 -117.202731 15 29ft 0kts
13-Oct-18 09:34 32.734006 -117.202730 15 29ft 0kts
13-Oct-18 09:35 32.734255 -117.202650 13 29ft 4kts
13-Oct-18 09:36 32.735080 -117.200252 106 29ft 13kts
13-Oct-18 09:37 32.734080 -117.196136 106 29ft 12kts
13-Oct-18 09:38 32.732801 -117.190931 104 29ft 17kts
13-Oct-18 09:39 32.731278 -117.184526 106 29ft 17kts
13-Oct-18 09:40 32.729862 -117.178675 107 29ft 18kts
13-Oct-18 09:41 32.729534 -117.176716 72 29ft 0kts
13-Oct-18 09:42 32.729534 -117.176715 72 29ft 0kts
13-Oct-18 09:43 32.729534 -117.176715 72 29ft 0kts
13-Oct-18 09:44 32.729535 -117.176714 72 29ft 0kts
13-Oct-18 09:45 32.730799 -117.178306 285 29ft 56kts
13-Oct-18 09:46 32.741815 -117.223513 284 1290ft 162kts
13-Oct-18 09:47 32.756304 -117.284704 279 2785ft 225kts
13-Oct-18 09:48 32.712036 -117.327484 157 5254ft 271kts
13-Oct-18 09:49 32.653523 -117.268029 139 8350ft 285kts
13-Oct-18 09:50 32.624886 -117.182136 94 10933ft 307kts
13-Oct-18 09:51 32.615955 -117.071753 96 12323ft 359kts
13-Oct-18 09:52 32.605064 -116.952523 96 14639ft 371kts
13-Oct-18 09:53 32.618535 -116.829639 76 16685ft 385kts
13-Oct-18 09:54 32.637405 -116.702778 85 18532ft 398kts
13-Oct-18 09:55 32.650099 -116.568990 84 20139ft 416kts
13-Oct-18 09:56 32.663549 -116.430111 85 21594ft 432kts
13-Oct-18 09:57 32.677365 -116.285536 85 22908ft 449kts
13-Oct-18 09:58 32.691448 -116.135617 85 24118ft 464kts
13-Oct-18 09:59 32.704752 -115.992784 86 25207ft 475kts
13-Oct-18 10:00 32.719130 -115.837108 86 26575ft 479kts
13-Oct-18 10:01 32.733449 -115.679778 87 28096ft 478kts
13-Oct-18 10:02 32.747486 -115.523536 87 28888ft 470kts
13-Oct-18 10:03 32.752183 -115.368860 92 28887ft 466kts
13-Oct-18 10:04 32.755815 -115.215372 92 28893ft 465kts
13-Oct-18 10:05 32.759101 -115.061282 92 28900ft 465kts
13-Oct-18 10:06 32.762324 -114.907750 92 28885ft 466kts
13-Oct-18 10:07 32.765331 -114.753351 92 28849ft 468kts
13-Oct-18 10:08 32.768080 -114.598788 93 28879ft 468kts
13-Oct-18 10:09 32.770272 -114.443278 94 28875ft 470kts
13-Oct-18 10:10 32.803737 -114.294087 52 28836ft 484kts
13-Oct-18 10:11 32.907189 -114.194251 31 28923ft 479kts
13-Oct-18 10:12 33.018034 -114.106837 30 28925ft 477kts
13-Oct-18 10:13 33.127837 -114.019459 39 28908ft 473kts
13-Oct-18 10:14 33.206718 -113.894758 68 28912ft 476kts
13-Oct-18 10:15 33.216211 -113.744181 111 28905ft 450kts
13-Oct-18 10:16 33.180043 -113.600027 112 29841ft 458kts
13-Oct-18 10:17 33.145190 -113.451264 113 30726ft 469kts
13-Oct-18 10:18 33.108766 -113.300270 113 31606ft 478kts
13-Oct-18 10:19 33.071787 -113.147071 113 32431ft 482kts
13-Oct-18 10:20 33.033714 -112.990484 113 32922ft 489kts
13-Oct-18 10:21 32.995691 -112.834815 113 32924ft 490kts
13-Oct-18 10:22 32.957783 -112.678816 109 32937ft 495kts
13-Oct-18 10:23 32.941948 -112.513552 101 32966ft 504kts
13-Oct-18 10:24 32.926652 -112.347954 102 32967ft 502kts
13-Oct-18 10:25 32.911605 -112.182824 102 32902ft 503kts
13-Oct-18 10:26 32.895959 -112.016943 102 32917ft 503kts
13-Oct-18 10:27 32.874236 -111.853771 111 32895ft 497kts
13-Oct-18 10:28 32.837993 -111.694707 111 32963ft 500kts
13-Oct-18 10:29 32.802590 -111.534706 112 32990ft 500kts
13-Oct-18 10:30 32.766662 -111.375664 111 32977ft 498kts
13-Oct-18 10:31 32.730685 -111.216719 112 32955ft 498kts
13-Oct-18 10:32 32.694377 -111.057729 112 32924ft 499kts
13-Oct-18 10:33 32.657919 -110.898735 112 32957ft 500kts
13-Oct-18 10:34 32.621043 -110.738882 112 33002ft 501kts
13-Oct-18 10:35 32.584017 -110.579486 112 33004ft 502kts
13-Oct-18 10:36 32.546667 -110.419617 112 32976ft 501kts
13-Oct-18 10:37 32.508965 -110.259644 112 32976ft 505kts
13-Oct-18 10:38 32.471319 -110.100275 112 33056ft 503kts
13-Oct-18 10:39 32.433066 -109.940455 112 33007ft 505kts
13-Oct-18 10:40 32.401199 -109.806861 112 33016ft 505kts
13-Oct-18 10:41 32.356226 -109.620600 112 33026ft 505kts
13-Oct-18 10:42 32.317593 -109.461284 112 33058ft 504kts
13-Oct-18 10:43 32.285217 -109.328702 112 33069ft 503kts
13-Oct-18 10:44 32.241581 -109.142380 111 33021ft 506kts
13-Oct-18 10:45 32.211071 -109.009247 111 33052ft 505kts
13-Oct-18 10:46 32.174192 -108.849433 111 33060ft 504kts
13-Oct-18 10:47 32.130979 -108.663457 111 33085ft 503kts
13-Oct-18 10:48 32.099910 -108.530459 111 33077ft 503kts
13-Oct-18 10:49 32.062536 -108.371637 111 33091ft 503kts
13-Oct-18 10:50 32.018695 -108.186125 111 33075ft 503kts
13-Oct-18 10:51 31.980942 -108.027794 111 33061ft 503kts
13-Oct-18 10:52 31.949280 -107.895582 112 33050ft 502kts
13-Oct-18 10:53 31.917688 -107.735106 99 33060ft 510kts
13-Oct-18 10:54 31.907880 -107.568387 98 33073ft 510kts
13-Oct-18 10:55 31.896191 -107.401597 98 33083ft 511kts
13-Oct-18 10:56 31.884995 -107.235203 98 33099ft 510kts
13-Oct-18 10:57 31.873438 -107.068864 98 33091ft 510kts
13-Oct-18 10:58 31.861701 -106.902483 98 33092ft 509kts
13-Oct-18 10:59 31.849754 -106.737106 98 33056ft 509kts
13-Oct-18 11:00 31.837567 -106.571038 98 33017ft 509kts
13-Oct-18 11:01 31.825225 -106.405289 98 33040ft 509kts
13-Oct-18 11:02 31.806507 -106.241399 110 33021ft 503kts
13-Oct-18 11:03 31.766724 -106.084385 111 33082ft 502kts
13-Oct-18 11:04 31.721245 -105.899827 111 33107ft 502kts
13-Oct-18 11:05 31.688424 -105.768989 111 33107ft 501kts
13-Oct-18 11:06 31.648954 -105.612107 111 33083ft 500kts
13-Oct-18 11:07 31.609574 -105.456051 111 33047ft 500kts
13-Oct-18 11:08 31.569754 -105.299892 111 33032ft 499kts
13-Oct-18 11:09 31.530060 -105.144314 111 33082ft 498kts
13-Oct-18 11:10 31.490061 -104.988907 111 33117ft 497kts
13-Oct-18 11:11 31.449992 -104.834027 111 33112ft 497kts
13-Oct-18 11:12 31.409715 -104.679299 111 33087ft 497kts
13-Oct-18 11:13 31.369344 -104.524764 111 33097ft 495kts
13-Oct-18 11:14 31.328795 -104.370613 111 33028ft 495kts
13-Oct-18 11:15 31.288145 -104.216917 111 32985ft 495kts
13-Oct-18 11:16 31.247447 -104.063601 111 32987ft 494kts
13-Oct-18 11:17 31.206641 -103.910755 111 33062ft 492kts
13-Oct-18 11:18 31.165438 -103.757695 111 33034ft 493kts
13-Oct-18 11:19 31.124308 -103.605281 111 33011ft 491kts
13-Oct-18 11:20 31.083299 -103.454264 111 32962ft 488kts
13-Oct-18 11:21 31.042160 -103.303236 111 32930ft 488kts
13-Oct-18 11:22 30.993825 -103.127294 111 32950ft 488kts
13-Oct-18 11:23 30.959333 -103.002080 111 32992ft 487kts
13-Oct-18 11:24 30.913459 -102.825727 110 32989ft 488kts
13-Oct-18 11:25 30.874316 -102.674483 110 33016ft 487kts
13-Oct-18 11:26 30.835032 -102.523311 110 33283ft 488kts
13-Oct-18 11:27 30.802056 -102.397325 110 34118ft 490kts
13-Oct-18 11:28 30.762164 -102.245452 110 34928ft 495kts
13-Oct-18 11:29 30.721890 -102.092539 110 34953ft 493kts
13-Oct-18 11:30 30.681390 -101.940076 110 34948ft 493kts
13-Oct-18 11:31 30.640844 -101.787991 110 34938ft 493kts
13-Oct-18 11:32 30.600108 -101.636165 110 34955ft 492kts
13-Oct-18 11:33 30.559211 -101.484389 111 34895ft 491kts
13-Oct-18 11:34 30.518669 -101.334720 111 34907ft 485kts
13-Oct-18 11:35 30.477413 -101.183249 111 34944ft 494kts
13-Oct-18 11:36 30.435877 -101.031564 111 34951ft 495kts
13-Oct-18 11:37 30.394150 -100.879614 111 34953ft 495kts
13-Oct-18 11:38 30.352210 -100.728098 111 34912ft 496kts
13-Oct-18 11:39 30.310098 -100.576312 111 34890ft 495kts
13-Oct-18 11:40 30.267758 -100.424702 111 34895ft 493kts
13-Oct-18 11:41 30.225674 -100.274592 111 34911ft 490kts
13-Oct-18 11:42 30.183011 -100.123414 111 34949ft 498kts
13-Oct-18 11:43 30.139929 -99.971497 111 34951ft 498kts
13-Oct-18 11:44 30.096614 -99.819286 111 34946ft 498kts
13-Oct-18 11:45 30.053184 -99.667589 111 34929ft 498kts
13-Oct-18 11:46 30.009728 -99.516456 112 34933ft 495kts
13-Oct-18 11:47 29.966186 -99.365625 112 34845ft 493kts
13-Oct-18 11:48 29.922785 -99.216834 114 34844ft 487kts
13-Oct-18 11:49 29.869932 -99.072005 117 34882ft 492kts
13-Oct-18 11:50 29.816490 -98.926225 117 34890ft 493kts
13-Oct-18 11:51 29.762894 -98.781356 117 34899ft 492kts
13-Oct-18 11:52 29.709356 -98.636787 117 34937ft 491kts
13-Oct-18 11:53 29.655506 -98.491945 115 34848ft 492kts
13-Oct-18 11:54 29.639091 -98.336211 92 34812ft 493kts
13-Oct-18 11:55 29.633803 -98.177423 94 34842ft 501kts
13-Oct-18 11:56 29.627943 -98.017561 93 34847ft 501kts
13-Oct-18 11:57 29.621661 -97.858549 94 34723ft 494kts
13-Oct-18 11:58 29.615480 -97.701382 94 33448ft 488kts
13-Oct-18 11:59 29.609057 -97.545806 93 31344ft 484kts
13-Oct-18 12:00 29.602705 -97.393814 93 29262ft 469kts
13-Oct-18 12:01 29.596331 -97.247091 93 27619ft 444kts
13-Oct-18 12:02 29.590163 -97.107641 93 25672ft 433kts
13-Oct-18 12:03 29.583987 -96.971108 93 23671ft 423kts
13-Oct-18 12:04 29.577765 -96.837912 93 21742ft 412kts
13-Oct-18 12:05 29.571625 -96.707810 94 19882ft 400kts
13-Oct-18 12:06 29.565500 -96.581746 94 18041ft 389kts
13-Oct-18 12:07 29.559620 -96.461689 95 17015ft 357kts
13-Oct-18 12:08 29.553970 -96.349876 95 15679ft 345kts
13-Oct-18 12:09 29.548454 -96.241289 95 14243ft 336kts
13-Oct-18 12:10 29.587442 -96.152295 38 12749ft 329kts
13-Oct-18 12:11 29.654542 -96.082446 43 11290ft 323kts
13-Oct-18 12:12 29.719810 -96.012048 38 9759ft 321kts
13-Oct-18 12:13 29.793047 -95.954790 35 8596ft 307kts
13-Oct-18 12:14 29.859709 -95.902517 35 7904ft 280kts
13-Oct-18 12:15 29.923204 -95.852849 36 6966ft 270kts
13-Oct-18 12:16 29.981943 -95.800152 68 6971ft 261kts
13-Oct-18 12:17 29.993330 -95.722126 97 6799ft 236kts
13-Oct-18 12:18 29.993222 -95.644624 96 5075ft 254kts
13-Oct-18 12:19 29.993234 -95.563333 95 3672ft 255kts
13-Oct-18 12:20 29.993351 -95.490035 95 2420ft 199kts
13-Oct-18 12:21 29.993339 -95.433179 96 1442ft 160kts
13-Oct-18 12:22 29.993407 -95.385488 97 616ft 142kts
13-Oct-18 12:23 29.993410 -95.341523 91 111ft 99kts
13-Oct-18 12:24 29.990867 -95.330242 180 111ft 14kts
13-Oct-18 12:25 29.985629 -95.330264 180 111ft 20kts
13-Oct-18 12:26 29.983000 -95.333377 269 111ft 19kts
13-Oct-18 12:27 29.984638 -95.337326 327 111ft 13kts
13-Oct-18 12:28 29.984949 -95.337984 292 111ft 0kts
13-Oct-18 12:29 29.984949 -95.337984 292 111ft 0kts
13-Oct-18 12:30 29.984949 -95.337984 292 111ft 0kts
13-Oct-18 12:31 29.984949 -95.337984 292 111ft 0kts
13-Oct-18 12:32 29.984949 -95.337984 292 111ft 0kts
13-Oct-18 12:33 29.984949 -95.337984 292 111ft 0kts
13-Oct-18 12:34 29.984949 -95.337984 292 111ft 0kts
13-Oct-18 12:35 29.984949 -95.337984 292 111ft 0kts

Navigation Log

Ident Type
Flight plan parsing failed, navigation log unavailable